地図

経路データ

SID SEASON NUMBER BASIN SUBBASIN NAME ISO_TIME NATURE LAT LON WMO_WIND WMO_PRES WMO_AGENCY TRACK_TYPE DIST2LAND LANDFALL IFLAG USA_AGENCY USA_ATCF_ID USA_LAT USA_LON USA_RECORD USA_STATUS USA_WIND USA_PRES USA_SSHS USA_R34_NE USA_R34_SE USA_R34_SW USA_R34_NW USA_R50_NE USA_R50_SE USA_R50_SW USA_R50_NW USA_R64_NE USA_R64_SE USA_R64_SW USA_R64_NW USA_POCI USA_ROCI USA_RMW USA_EYE TOKYO_LAT TOKYO_LON TOKYO_GRADE TOKYO_WIND TOKYO_PRES TOKYO_R50_DIR TOKYO_R50_LONG TOKYO_R50_SHORT TOKYO_R30_DIR TOKYO_R30_LONG TOKYO_R30_SHORT TOKYO_LAND CMA_LAT CMA_LON CMA_CAT CMA_WIND CMA_PRES HKO_LAT HKO_LON HKO_CAT HKO_WIND HKO_PRES NEWDELHI_LAT NEWDELHI_LON NEWDELHI_GRADE NEWDELHI_WIND NEWDELHI_PRES NEWDELHI_CI NEWDELHI_DP NEWDELHI_POCI REUNION_LAT REUNION_LON REUNION_TYPE REUNION_WIND REUNION_PRES REUNION_TNUM REUNION_CI REUNION_RMW REUNION_R34_NE REUNION_R34_SE REUNION_R34_SW REUNION_R34_NW REUNION_R50_NE REUNION_R50_SE REUNION_R50_SW REUNION_R50_NW REUNION_R64_NE REUNION_R64_SE REUNION_R64_SW REUNION_R64_NW BOM_LAT BOM_LON BOM_TYPE BOM_WIND BOM_PRES BOM_TNUM BOM_CI BOM_RMW BOM_R34_NE BOM_R34_SE BOM_R34_SW BOM_R34_NW BOM_R50_NE BOM_R50_SE BOM_R50_SW BOM_R50_NW BOM_R64_NE BOM_R64_SE BOM_R64_SW BOM_R64_NW BOM_ROCI BOM_POCI BOM_EYE BOM_POS_METHOD BOM_PRES_METHOD NADI_LAT NADI_LON NADI_CAT NADI_WIND NADI_PRES WELLINGTON_LAT WELLINGTON_LON WELLINGTON_WIND WELLINGTON_PRES DS824_LAT DS824_LON DS824_STAGE DS824_WIND DS824_PRES TD9636_LAT TD9636_LON TD9636_STAGE TD9636_WIND TD9636_PRES TD9635_LAT TD9635_LON TD9635_WIND TD9635_PRES TD9635_ROCI NEUMANN_LAT NEUMANN_LON NEUMANN_CLASS NEUMANN_WIND NEUMANN_PRES MLC_LAT MLC_LON MLC_CLASS MLC_WIND MLC_PRES USA_GUST BOM_GUST BOM_GUST_PER REUNION_GUST REUNION_GUST_PER USA_SEAHGT USA_SEARAD_NE USA_SEARAD_SE USA_SEARAD_SW USA_SEARAD_NW STORM_SPEED STORM_DIR
1927054S16064 1927 11 SI MM NOT_NAMED 1927-02-23 06:00:00 NR -16.4000 64.3000 reunion main 810 801 _____O________ -1 -16.4000 64.3000 99 9.90000 1 275
1927054S16064 1927 11 SI MM NOT_NAMED 1927-02-23 09:00:00 NR -16.3950 64.2425 main 801 801 _____P________ -1 -16.3950 64.2425 99 1 274
1927054S16064 1927 11 SI MM NOT_NAMED 1927-02-23 12:00:00 NR -16.3917 64.1809 main 801 792 _____P________ -1 -16.3917 64.1809 99 1 272
1927054S16064 1927 11 SI MM NOT_NAMED 1927-02-23 15:00:00 NR -16.3918 64.1112 main 792 792 _____P________ -1 -16.3918 64.1112 99 1 267
1927054S16064 1927 11 SI MM NOT_NAMED 1927-02-23 18:00:00 NR -16.3974 64.0836 main 792 783 _____P____O___ -1 -16.3968 64.0294 99 -16.4000 64.3000 7 1 257
1927054S16064 1927 11 SI MM NOT_NAMED 1927-02-23 21:00:00 NR -16.4124 64.0153 main 783 774 _____P____P___ -1 -16.4085 63.9315 99 -16.4202 64.1828 7 2 257
1927054S16064 1927 11 SI MM NOT_NAMED 1927-02-24 00:00:00 NR -16.4345 63.9158 main 774 759 _____P____P___ -1 -16.4285 63.8133 99 -16.4424 64.0525 7 2 257
1927054S16064 1927 11 SI MM NOT_NAMED 1927-02-24 03:00:00 NR -16.4634 63.7834 main 759 741 _____P____P___ -1 -16.4585 63.6709 99 -16.4683 63.8959 7 3 257
1927054S16064 1927 11 SI MM NOT_NAMED 1927-02-24 06:00:00 TS -16.5000 63.6111 reunion main 741 724 _____O___OO___ -1 -16.5000 63.5000 99 9.90000 -16.5000 63.7000 TC 25 -16.5000 63.7000 7 4 258
1927054S16064 1927 11 SI MM NOT_NAMED 1927-02-24 09:00:00 TS -16.5472 63.3801 main 724 691 _____P___PP___ -1 -16.5540 63.2984 99 -16.5501 63.3900 TC 25 -16.5389 63.4569 7 5 258
1927054S16064 1927 11 SI MM NOT_NAMED 1927-02-24 12:00:00 TS -16.6014 63.1183 main 691 667 _____P___OP___ -1 -16.6188 63.0705 99 -16.6000 63.1000 TC 25 -16.5852 63.1800 7 5 257
1927054S16064 1927 11 SI MM NOT_NAMED 1927-02-24 15:00:00 TS -16.6602 62.8510 main 667 641 _____P___PP___ -1 -16.6919 62.8225 99 -16.6499 62.8425 TC 25 -16.6389 62.8881 7 5 257
1927054S16064 1927 11 SI MM NOT_NAMED 1927-02-24 18:00:00 TS -16.7237 62.5869 main 641 609 _____P___OO___ -1 -16.7710 62.5606 99 -16.7000 62.6000 TC 25 -16.7000 62.6000 7 5 256
1927054S16064 1927 11 SI MM NOT_NAMED 1927-02-24 21:00:00 TS -16.7880 62.3239 main 609 586 _____P___PP___ -1 -16.8536 62.2912 99 -16.7425 62.3500 TC 25 -16.7678 62.3306 7 5 255
1927054S16064 1927 11 SI MM NOT_NAMED 1927-02-25 00:00:00 TS -16.8600 62.0635 main 586 561 _____P___OP___ -1 -16.9375 62.0204 99 -16.8000 62.1000 TC 25 -16.8425 62.0700 7 5 252
1927054S16064 1927 11 SI MM NOT_NAMED 1927-02-25 03:00:00 TS -16.9471 61.8072 main 561 537 _____P___PP___ -1 -17.0204 61.7546 99 -16.9000 61.8425 TC 25 -16.9209 61.8244 7 5 250
1927054S16064 1927 11 SI MM NOT_NAMED 1927-02-25 06:00:00 TS -17.0333 61.5667 reunion main 537 514 _____O___OO___ -1 -17.1000 61.5000 99 9.90000 -17.0000 61.6000 TC 25 -17.0000 61.6000 7 5 251
1927054S16064 1927 11 SI MM NOT_NAMED 1927-02-25 09:00:00 TS -17.0966 61.3572 main 514 491 _____P___PP___ -1 -17.1649 61.2793 99 -17.0500 61.3849 TC 25 -17.0748 61.4074 7 4 252
1927054S16064 1927 11 SI MM NOT_NAMED 1927-02-25 12:00:00 TS -17.1591 61.1672 main 491 475 _____P___OP___ -1 -17.2276 61.0668 99 -17.1000 61.2000 TC 25 -17.1498 61.2349 7 4 248
1927054S16064 1927 11 SI MM NOT_NAMED 1927-02-25 15:00:00 TS -17.2354 60.9938 main 475 452 _____P___PP___ -1 -17.2888 60.8615 99 -17.1925 61.0500 TC 25 -17.2248 61.0699 7 4 245
1927054S16064 1927 11 SI MM NOT_NAMED 1927-02-25 18:00:00 TS -17.3165 60.8207 main 452 429 _____P___OO___ -1 -17.3494 60.6620 99 -17.3000 60.9000 TC 25 -17.3000 60.9000 7 4 245
1927054S16064 1927 11 SI MM NOT_NAMED 1927-02-25 21:00:00 TS -17.3988 60.6273 main 429 406 _____P___PP___ -1 -17.4100 60.4673 99 -17.4075 60.7075 TC 25 -17.3790 60.7072 7 4 247
1927054S16064 1927 11 SI MM NOT_NAMED 1927-02-26 00:00:00 TS -17.4763 60.4279 main 406 392 _____P___OP___ -1 -17.4715 60.2762 99 -17.5000 60.5000 TC 25 -17.4575 60.5075 7 4 249
1927054S16064 1927 11 SI MM NOT_NAMED 1927-02-26 03:00:00 TS -17.5414 60.2305 main 392 369 _____P___PP___ -1 -17.5345 60.0875 99 -17.5575 60.3000 TC 25 -17.5322 60.3041 7 4 252
1927054S16064 1927 11 SI MM NOT_NAMED 1927-02-26 06:00:00 TS -17.6000 60.0333 reunion main 369 347 _____O___OO___ -1 -17.6000 59.9000 99 9.90000 -17.6000 60.1000 TC 25 -17.6000 60.1000 7 4 253
1927054S16064 1927 11 SI MM NOT_NAMED 1927-02-26 09:00:00 TS -17.6577 59.8366 main 347 341 _____P___PP___ -1 -17.6702 59.7059 99 -17.6500 59.9000 TC 25 -17.6530 59.9039 7 4 253
1927054S16064 1927 11 SI MM NOT_NAMED 1927-02-26 12:00:00 TS -17.7142 59.6403 main 334 319 _____P___OP___ -1 -17.7426 59.5136 99 -17.7000 59.7000 TC 25 -17.6999 59.7073 7 4 253
1927054S16064 1927 11 SI MM NOT_NAMED 1927-02-26 15:00:00 TS -17.7711 59.4460 main 313 307 _____P___PP___ -1 -17.8167 59.3233 99 -17.7500 59.5075 TC 25 -17.7468 59.5071 7 4 253
1927054S16064 1927 11 SI MM NOT_NAMED 1927-02-26 18:00:00 TS -17.8307 59.2450 main 301 281 _____P___OO___ -1 -17.8922 59.1349 99 -17.8000 59.3000 TC 25 -17.8000 59.3000 7 4 253
1927054S16064 1927 11 SI MM NOT_NAMED 1927-02-26 21:00:00 TS -17.8930 59.0228 main 281 261 _____P___PP___ -1 -17.9687 58.9483 99 -17.8425 59.0500 TC 25 -17.8679 59.0700 7 4 253
1927054S16064 1927 11 SI MM NOT_NAMED 1927-02-27 00:00:00 TS -17.9628 58.7996 main 261 253 _____P___OP___ -1 -18.0457 58.7636 99 -17.9000 58.8000 TC 25 -17.9426 58.8351 7 4 249
1927054S16064 1927 11 SI MM NOT_NAMED 1927-02-27 03:00:00 TS -18.0480 58.5911 main 253 235 _____P___PP___ -1 -18.1230 58.5809 99 -18.0000 58.5850 TC 25 -18.0210 58.6075 7 4 246
1927054S16064 1927 11 SI MM NOT_NAMED 1927-02-27 06:00:00 TS -18.1333 58.4000 reunion main 235 218 _____O___OO___ -1 -18.2000 58.4000 99 9.90000 -18.1000 58.4000 TC 25 -18.1000 58.4000 7 4 247
1927054S16064 1927 11 SI MM NOT_NAMED 1927-02-27 09:00:00 TS -18.1960 58.2297 main 218 205 _____P___PP___ -1 -18.2672 58.2182 99 -18.1500 58.2424 TC 25 -18.1708 58.2283 7 3 248
1927054S16064 1927 11 SI MM NOT_NAMED 1927-02-27 12:00:00 TS -18.2586 58.0719 main 205 202 _____P___OP___ -1 -18.3335 58.0383 99 -18.2000 58.1000 TC 25 -18.2423 58.0774 7 3 245
1927054S16064 1927 11 SI MM NOT_NAMED 1927-02-27 15:00:00 TS -18.3369 57.9160 main 202 190 _____P___PP___ -1 -18.4005 57.8604 99 -18.2925 57.9500 TC 25 -18.3177 57.9377 7 3 241
1927054S16064 1927 11 SI MM NOT_NAMED 1927-02-27 18:00:00 TS -18.4232 57.7615 main 190 178 _____P___OO___ -1 -18.4697 57.6844 99 -18.4000 57.8000 TC 25 -18.4000 57.8000 7 3 239
1927054S16064 1927 11 SI MM NOT_NAMED 1927-02-27 21:00:00 TS -18.5105 57.6061 main 178 167 _____P___PP___ -1 -18.5427 57.5104 99 -18.5000 57.6500 TC 25 -18.4887 57.6580 7 3 239
1927054S16064 1927 11 SI MM NOT_NAMED 1927-02-28 00:00:00 TS -18.6020 57.4510 main 167 156 _____P___OP___ -1 -18.6211 57.3383 99 -18.6000 57.5000 TC 25 -18.5849 57.5149 7 3 238
1927054S16064 1927 11 SI MM NOT_NAMED 1927-02-28 03:00:00 TS -18.6958 57.2966 main 158 148 _____P___PP___ -1 -18.7063 57.1682 99 -18.6925 57.3574 TC 25 -18.6887 57.3643 7 4 237
1927054S16064 1927 11 SI MM NOT_NAMED 1927-02-28 06:00:00 TS -18.8000 57.1333 reunion main 151 140 _____O___OO___ -1 -18.8000 57.0000 99 9.90000 -18.8000 57.2000 TC 25 -18.8000 57.2000 7 4 233
1927054S16064 1927 11 SI MM NOT_NAMED 1927-02-28 09:00:00 TS -18.9341 56.9580 main 144 133 _____P___PP___ -1 -18.9346 56.8561 99 -18.9500 57.0075 TC 25 -18.9178 57.0103 7 4 231
1927054S16064 1927 11 SI MM NOT_NAMED 1927-02-28 12:00:00 TS -19.0746 56.7749 main 133 130 _____P___OP___ -1 -19.0812 56.7173 99 -19.1000 56.8000 TC 25 -19.0426 56.8075 7 4 233
1927054S16064 1927 11 SI MM NOT_NAMED 1927-02-28 15:00:00 TS -19.2011 56.5905 main 137 137 _____P___PP___ -1 -19.2324 56.5782 99 -19.2000 56.5924 TC 25 -19.1710 56.6009 7 4 234
1927054S16064 1927 11 SI MM NOT_NAMED 1927-02-28 18:00:00 TS -19.3270 56.4112 main 145 139 _____P___OO___ -1 -19.3809 56.4337 99 -19.3000 56.4000 TC 25 -19.3000 56.4000 7 4 230
1927054S16064 1927 11 SI MM NOT_NAMED 1927-02-28 21:00:00 TS -19.4715 56.2543 main 142 142 _____P___PP___ -1 -19.5193 56.2788 99 -19.4499 56.2500 TC 25 -19.4451 56.2341 7 4 227
1927054S16064 1927 11 SI MM NOT_NAMED 1927-03-01 00:00:00 TS -19.6091 56.0936 main 156 146 _____P___OP___ -1 -19.6403 56.1083 99 -19.6000 56.1000 TC 25 -19.5872 56.0726 7 4 232
1927054S16064 1927 11 SI MM NOT_NAMED 1927-03-01 03:00:00 TS -19.7207 55.9106 main 146 134 _____P___PP___ -1 -19.7363 55.9170 99 -19.7150 55.9150 TC 25 -19.7107 55.8998 7 4 243
1927054S16064 1927 11 SI MM NOT_NAMED 1927-03-01 06:00:00 TS -19.8000 55.7000 reunion main 134 134 _____O___OO___ -1 -19.8000 55.7000 99 9.90000 -19.8000 55.7000 TC 25 -19.8000 55.7000 7 4 253
1927054S16064 1927 11 SI MM NOT_NAMED 1927-03-01 09:00:00 TS -19.8484 55.4604 main 134 123 _____P___PP___ -1 -19.8205 55.4583 99 -19.8725 55.4650 TC 25 -19.8522 55.4578 7 5 263
1927054S16064 1927 11 SI MM NOT_NAMED 1927-03-01 12:00:00 TS -19.8595 55.1936 main 123 123 _____P___OP___ -1 -19.8109 55.1934 99 -19.9000 55.2000 TC 25 -19.8675 55.1875 7 5 272
1927054S16064 1927 11 SI MM NOT_NAMED 1927-03-01 15:00:00 TS -19.8320 54.9042 main 140 140 _____P___PP___ -1 -19.7744 54.9066 99 -19.8725 54.9075 TC 25 -19.8490 54.8985 7 6 279
1927054S16064 1927 11 SI MM NOT_NAMED 1927-03-01 18:00:00 TS -19.7714 54.5999 main 152 152 _____P___OO___ -1 -19.7142 54.5997 99 -19.8000 54.6000 TC 25 -19.8000 54.6000 7 6 284
1927054S16064 1927 11 SI MM NOT_NAMED 1927-03-01 21:00:00 TS -19.6939 54.2992 main 178 178 _____P___PP___ -1 -19.6335 54.2741 99 -19.7075 54.3000 TC 25 -19.7406 54.3235 7 6 287
1927054S16064 1927 11 SI MM NOT_NAMED 1927-03-02 00:00:00 TS -19.5958 53.9897 main 207 207 _____P___OP___ -1 -19.5354 53.9313 99 -19.6000 54.0000 TC 25 -19.6520 54.0377 7 6 289
1927054S16064 1927 11 SI MM NOT_NAMED 1927-03-02 03:00:00 TS -19.4893 53.6736 main 236 236 _____P___PP___ -1 -19.4232 53.5728 99 -19.5074 53.7151 TC 25 -19.5374 53.7330 7 7 290
1927054S16064 1927 11 SI MM NOT_NAMED 1927-03-02 06:00:00 TS -19.3667 53.3333 reunion main 274 274 _____O___OO___ -1 -19.3000 53.2000 99 9.90000 -19.4000 53.4000 TC 25 -19.4000 53.4000 7 7 292
1927054S16064 1927 11 SI MM NOT_NAMED 1927-03-02 09:00:00 TS -19.2242 52.9737 main 312 312 _____P___PP___ -1 -19.1652 52.8735 99 -19.2650 53.0150 TC 25 -19.2425 53.0326 7 8 294
1927054S16064 1927 11 SI MM NOT_NAMED 1927-03-02 12:00:00 TS -19.0596 52.5912 main 351 305 _____P___OP___ -1 -19.0138 52.5363 99 -19.1000 52.6000 TC 25 -19.0649 52.6373 7 8 295
1927054S16064 1927 11 SI MM NOT_NAMED 1927-03-02 15:00:00 TS -18.8772 52.2016 main 305 259 _____P___PP___ -1 -18.8519 52.1815 99 -18.8999 52.2000 TC 25 -18.8799 52.2233 7 8 296
1927054S16064 1927 11 SI MM NOT_NAMED 1927-03-02 18:00:00 TS -18.6953 51.8007 main 259 213 _____P___OO___ -1 -18.6859 51.8022 99 -18.7000 51.8000 TC 25 -18.7000 51.8000 7 8 294
1927054S16064 1927 11 SI MM NOT_NAMED 1927-03-02 21:00:00 TS -18.5366 51.4102 main 213 170 _____P___PP___ -1 -18.5217 51.3914 99 -18.5424 51.4076 TC 25 -18.5457 51.4315 7 8 292
1927054S16064 1927 11 SI MM NOT_NAMED 1927-03-03 00:00:00 TS -18.3879 50.9969 main 170 127 _____P___OP___ -1 -18.3654 50.9422 99 -18.4000 51.0000 TC 25 -18.3982 51.0483 7 9 290
1927054S16064 1927 11 SI MM NOT_NAMED 1927-03-03 03:00:00 TS -18.2439 50.5529 main 126 73 _____P___PP___ -1 -18.2229 50.4475 99 -18.2571 50.5952 TC 25 -18.2517 50.6160 7 10 287
1927054S16064 1927 11 SI MM NOT_NAMED 1927-03-03 06:00:00 TS -18.1000 50.0333 reunion main 63 0 _____O___OO___ -1 -18.1000 49.9000 99 9.90000 -18.1000 50.1000 TC 25 -18.1000 50.1000 7 12 286
1927054S16064 1927 11 SI MM NOT_NAMED 1927-03-03 09:00:00 TS -17.9205 49.3887 main 0 0 _____P___PP___ -1 -17.9738 49.2494 99 -17.9000 49.4449 TC 25 -17.8877 49.4719 7 13 285
1927054S16064 1927 11 SI MM NOT_NAMED 1927-03-03 12:00:00 TS -17.7447 48.6666 main 0 0 _____P___OP___ -1 -17.8590 48.5397 99 -17.7000 48.7000 TC 25 -17.6751 48.7601 7 14 283
1927054S16064 1927 11 SI MM NOT_NAMED 1927-03-03 15:00:00 TS -17.5934 47.9155 main 0 0 _____P___PP___ -1 -17.7605 47.7882 99 -17.5197 47.9649 TC 25 -17.4999 47.9935 7 15 280
1927054S16064 1927 11 SI MM NOT_NAMED 1927-03-03 18:00:00 TS -17.4945 47.1373 main 0 0 _____P___OO___ -1 -17.6834 47.0120 99 -17.4000 47.2000 TC 25 -17.4000 47.2000 7 15 275
1927054S16064 1927 11 SI MM NOT_NAMED 1927-03-03 21:00:00 TS -17.4609 46.3459 main 0 0 _____P___PP___ -1 -17.6330 46.2282 99 -17.3473 46.4074 TC 25 -17.4025 46.4021 7 15 269
1927054S16064 1927 11 SI MM NOT_NAMED 1927-03-04 00:00:00 TS -17.5129 45.5425 main 0 0 _____P___OP___ -1 -17.6150 45.4538 99 -17.4000 45.6000 TC 25 -17.4895 45.6032 7 15 264
1927054S16064 1927 11 SI MM NOT_NAMED 1927-03-04 03:00:00 TS -17.6176 44.7529 main 0 0 _____P___PP___ -1 -17.6353 44.7055 99 -17.5681 44.7981 TC 25 -17.6318 44.8025 7 15 261
1927054S16064 1927 11 SI MM NOT_NAMED 1927-03-04 06:00:00 TS -17.7333 44.0000 reunion main 0 0 _____O___OO___ -1 -17.7000 44.0000 99 9.90000 -17.8000 44.0000 TC 25 -17.8000 44.0000 7 14 262
1927054S16064 1927 11 SI MM NOT_NAMED 1927-03-04 09:00:00 NR -17.8133 43.3497 main 71 71 _____P________ -1 -17.8133 43.3497 99 TC 7 12 259
1927054S16064 1927 11 SI MM NOT_NAMED 1927-03-04 12:00:00 NR -17.9713 42.7507 main 126 126 _____P________ -1 -17.9713 42.7507 99 7 12 252
1927054S16064 1927 11 SI MM NOT_NAMED 1927-03-04 15:00:00 NR -18.1676 42.1950 main 190 190 _____P________ -1 -18.1676 42.1950 99 7 11 247
1927054S16064 1927 11 SI MM NOT_NAMED 1927-03-04 18:00:00 NR -18.3960 41.6749 main 242 242 _____P________ -1 -18.3960 41.6749 99 11 243
1927054S16064 1927 11 SI MM NOT_NAMED 1927-03-04 21:00:00 NR -18.6501 41.1828 main 287 270 _____P________ -1 -18.6501 41.1828 99 11 240
1927054S16064 1927 11 SI MM NOT_NAMED 1927-03-05 00:00:00 NR -18.9232 40.7113 main 271 268 _____P________ -1 -18.9232 40.7113 99 10 238
1927054S16064 1927 11 SI MM NOT_NAMED 1927-03-05 03:00:00 NR -19.2088 40.2528 main 276 272 _____P________ -1 -19.2088 40.2528 99 10 236
1927054S16064 1927 11 SI MM NOT_NAMED 1927-03-05 06:00:00 NR -19.5000 39.8000 reunion main 289 _____O________ -1 -19.5000 39.8000 99 9.90000 10 236

IBTrACS Databaseについて

本データベースは、米国NOAAが公開する1842年以降の世界の熱帯低気圧のベストトラックデータアーカイブInternational Best Track Archive for Climate Stewardship (IBTrACS)を、ウェブで閲覧しやすい形式に変換したものです。

最終更新日:2021-10-21